Manila Express — VRCX7 — position and weather

sailwx.info

Track history (hours):
 
Tides and Currents Weather Stations Pressure Air Temp Water Temp Dewpoint Dewpoint Depression Visibility Wind Speed Wind Dir Waves Ship Positions

Manila Express

Last reported at 2015-Jan-30 11:33 UTC. Time now 2015-Jan-30 12:35 UTC.
Position N 41°30' E 004°35'.

Length 260 m; draft 10.1 m.

Type: Ship (hazmat cat A). MMSI: 477830800.

Date/timePositionNaut miles runAvg speedWind from/ knotsBaromVisibWave heightAir tempDewpointWater temp
2015-Jan-30 11:33N 41°30' E 004°35'2116.0
2015-Jan-30 10:13N 41°16' E 004°14'1213.5
2015-Jan-30 09:22N 41°09' E 004°01'1314.5
2015-Jan-30 08:28N 41°01' E 003°48'1213.7
2015-Jan-30 07:33N 40°53' E 003°35'1515.1
2015-Jan-30 06:33N 40°43' E 003°20'1615.5
2015-Jan-30 05:33N 40°33' E 003°05'1515.4
2015-Jan-30 04:33N 40°22' E 002°49'1615.8
2015-Jan-30 03:33N 40°12' E 002°34'1615.8
2015-Jan-30 02:33N 40°02' E 002°18'1615.9
2015-Jan-30 01:33N 39°51' E 002°03'1615.7
2015-Jan-30 00:33N 39°41' E 001°47'1616.1
2015-Jan-29 23:33N 39°30' E 001°31'1615.7
2015-Jan-29 22:33N 39°18' E 001°18'1815.4
2015-Jan-29 21:25N 39°03' E 001°07'1415.5
2015-Jan-29 20:30N 38°51' E 000°57'2015.6
2015-Jan-29 19:15N 38°35' E 000°44'1115.2
2015-Jan-29 18:33N 38°25' E 000°37'1515.2
2015-Jan-29 17:33N 38°12' E 000°27'1515.4
2015-Jan-29 16:33N 37°59' E 000°17'1615.8
2015-Jan-29 15:33N 37°46' E 000°07'1615.8
2015-Jan-29 14:33N 37°32' W 000°04'1515.7
2015-Jan-29 13:33N 37°19' W 000°13'1515.0
2015-Jan-29 12:33N 37°07' W 000°26'1615.8
2015-Jan-29 11:33N 36°60' W 000°43'1615.8
2015-Jan-29 10:33N 36°52' W 001°01'21215.2
2015-Jan-28 20:33N 35°60' W 005°17'12815.2
2015-Jan-28 12:09N 36°13' W 007°54'1015.4
2015-Jan-28 11:31N 36°16' W 008°05'11113.4
2015-Jan-28 03:14N 37°33' W 009°45'1115.4
2015-Jan-28 02:32N 37°44' W 009°47'1515.2
2015-Jan-28 01:32N 37°58' W 009°53'1515.1
2015-Jan-28 00:33N 38°13' W 009°57'1615.6
2015-Jan-27 23:33N 38°28' W 010°03'1616.1
2015-Jan-27 22:33N 38°43' W 010°07'1715.9
2015-Jan-27 21:31N 38°60' W 010°07'  
2015-Jan-25 16:28N 49°40' W 000°35'1618.1
2015-Jan-25 15:33N 49°33' W 000°12'1313.4
2015-Jan-25 14:33N 49°28' E 000°07'1 1.2
2015-Jan-25 13:34N 49°28' E 000°09'0 0.0
2015-Jan-25 12:33N 49°28' E 000°09'0 0.0
2015-Jan-25 11:33N 49°28' E 000°09'0 0.0
2015-Jan-25 10:33N 49°28' E 000°09'0 0.0
2015-Jan-25 09:30N 49°28' E 000°09'0 0.0
2015-Jan-25 08:33N 49°28' E 000°09'0 0.0
2015-Jan-25 07:33N 49°28' E 000°09'3 3.2
2015-Jan-25 06:33N 49°29' E 000°05'1111.1
2015-Jan-25 05:34N 49°32' W 000°12'1313.3
2015-Jan-25 04:33N 49°41' W 000°27'5717.9
2015-Jan-25 01:21N 50°31' E 000°17'1417.7
2015-Jan-25 00:33N 50°37' E 000°38'1817.6
2015-Jan-24 23:33N 50°49' E 000°58'2020.2
2015-Jan-24 22:34N 51°02' E 001°22'2019.7
2015-Jan-24 21:34N 51°15' E 001°46'2322.6
2015-Jan-24 20:33N 51°34' E 002°06'2221.1
2015-Jan-24 19:31N 51°50' E 002°29'1919.4
2015-Jan-24 18:32N 52°02' E 002°53'2019.5
2015-Jan-24 17:32N 52°04' E 003°25'1616.7
2015-Jan-24 16:34N 52°03' E 003°52'6 6.5
2015-Jan-24 15:33N 52°00' E 004°01'1010.1
2015-Jan-24 14:33N 51°55' E 004°15'6 6.2
2015-Jan-24 13:32N 51°53' E 004°24'0 0.0
2015-Jan-24 12:32N 51°53' E 004°24'0 0.0
2015-Jan-24 11:32N 51°53' E 004°24'0 0.0
2015-Jan-24 10:29N 51°53' E 004°24'0 0.0
2015-Jan-24 09:32N 51°53' E 004°24'0 0.0
2015-Jan-24 08:32N 51°53' E 004°24'0 0.0
2015-Jan-24 07:32N 51°53' E 004°24'0 0.0
2015-Jan-24 06:32N 51°53' E 004°24'0 0.0
2015-Jan-24 05:32N 51°53' E 004°24'0 0.0
2015-Jan-24 04:32N 51°53' E 004°24'0 0.0
2015-Jan-24 03:32N 51°53' E 004°24'0 0.0
2015-Jan-24 02:32N 51°53' E 004°24'0 0.0
2015-Jan-24 01:32N 51°53' E 004°24'0 0.0
2015-Jan-24 00:31N 51°53' E 004°24'0 0.0
2015-Jan-23 23:32N 51°53' E 004°24'0 0.0
2015-Jan-23 22:32N 51°53' E 004°24'0 0.0
2015-Jan-23 21:31N 51°53' E 004°24'0 0.0
2015-Jan-23 20:31N 51°53' E 004°24'0 0.0
2015-Jan-23 19:31N 51°53' E 004°24'0 0.0
2015-Jan-23 18:31N 51°53' E 004°24'0 0.0
2015-Jan-23 17:31N 51°53' E 004°24'0 0.0
2015-Jan-23 16:31N 51°53' E 004°24'0 0.0
2015-Jan-23 15:31N 51°53' E 004°24'1 1.5
2015-Jan-23 14:33N 51°54' E 004°23'8 7.8
2015-Jan-23 13:33N 51°57' E 004°11'1010.0
2015-Jan-23 12:33N 51°60' E 003°56'10 9.9
2015-Jan-23 11:33N 51°58' E 003°40'1818.4
2015-Jan-23 10:34N 51°52' E 003°11'1918.8
2015-Jan-23 09:33N 51°49' E 002°41'1918.6
2015-Jan-23 08:31N 51°52' E 002°10'1515.9
2015-Jan-23 07:33N 51°49' E 001°46'9 9.4
2015-Jan-23 06:33N 51°46' E 001°32'1717.4
2015-Jan-23 05:33N 51°34' E 001°12'1817.7
2015-Jan-23 04:33N 51°30' E 000°45'1312.6
2015-Jan-23 03:33N 51°27' E 000°25'3 3.0
2015-Jan-23 02:33N 51°28' E 000°20'0 0.0
2015-Jan-23 01:33N 51°28' E 000°20'0 0.0
2015-Jan-23 00:32N 51°28' E 000°20'0 0.0
2015-Jan-22 23:34N 51°28' E 000°20'0 0.0
2015-Jan-22 22:34N 51°28' E 000°20'0 0.0
2015-Jan-22 21:32N 51°28' E 000°20'0 0.0
2015-Jan-22 20:31N 51°28' E 000°20'0 0.0
2015-Jan-22 19:33N 51°28' E 000°20'0 0.0
2015-Jan-22 18:31N 51°28' E 000°20'0 0.0
2015-Jan-22 17:33N 51°28' E 000°20'0 0.0
2015-Jan-22 16:34N 51°28' E 000°20'0 0.0
2015-Jan-22 15:34N 51°28' E 000°20'0 0.0
2015-Jan-22 14:33N 51°28' E 000°20'0 0.0
2015-Jan-22 13:32N 51°28' E 000°20'0 0.0
2015-Jan-22 12:32N 51°28' E 000°20'0 0.1
2015-Jan-22 11:33N 51°28' E 000°20'7 6.7
2015-Jan-22 10:33N 51°30' E 000°30'1413.6
2015-Jan-22 09:33N 51°29' E 000°52'1514.6
2015-Jan-22 08:33N 51°34' E 001°14'1717.0
2015-Jan-22 07:34N 51°47' E 001°33'9 9.4
2015-Jan-22 06:33N 51°52' E 001°45'1110.7
2015-Jan-22 05:33N 51°52' E 002°03'13 1.8
2015-Jan-21 22:39N 52°00' E 002°18'1412.9
2015-Jan-21 21:33N 52°06' E 002°40'1615.3
2015-Jan-21 20:32N 52°15' E 003°01'7013.2
2015-Jan-21 15:17N 53°07' E 004°17'912.9
2015-Jan-21 14:33N 53°14' E 004°27'1312.7
2015-Jan-21 13:33N 53°26' E 004°35'8 8.4
2015-Jan-21 12:33N 53°31' E 004°46'1414.4
2015-Jan-21 11:34N 53°36' E 005°09'1413.9
2015-Jan-21 10:33N 53°40' E 005°31'1313.1
2015-Jan-21 09:33N 53°44' E 005°52'1212.1
2015-Jan-21 08:33N 53°48' E 006°11'1712.0
2015-Jan-21 07:07N 53°52' E 006°40'712.7
2015-Jan-21 06:33N 53°54' E 006°51'1413.6
2015-Jan-21 05:31N 53°58' E 007°15'1414.2
2015-Jan-21 04:33N 54°01' E 007°37'1514.6
2015-Jan-21 03:33N 54°01' E 008°02'1716.8
2015-Jan-21 02:33N 53°58' E 008°30'1615.5
2015-Jan-21 01:33N 53°50' E 008°53'1110.9
2015-Jan-21 00:33N 53°53' E 009°11'1211.6
2015-Jan-20 23:33N 53°45' E 009°25'1111.5
2015-Jan-20 22:33N 53°35' E 009°37'1110.8
2015-Jan-20 21:34N 53°32' E 009°54'1 0.5
2015-Jan-20 20:32N 53°32' E 009°55'0 0.0
2015-Jan-20 19:32N 53°32' E 009°55'0 0.0
2015-Jan-20 18:32N 53°32' E 009°55'0 0.0
2015-Jan-20 17:32N 53°32' E 009°55'0 0.0
2015-Jan-20 16:32N 53°32' E 009°55'0 0.0
2015-Jan-20 15:32N 53°32' E 009°55'0 0.0
2015-Jan-20 14:32N 53°32' E 009°55'0 0.0
2015-Jan-20 13:29N 53°32' E 009°55'0 0.0
2015-Jan-20 12:32N 53°32' E 009°55'  
Track history (hours):
 
Tides and Currents Weather Stations Pressure Air Temp Water Temp Dewpoint Dewpoint Depression Visibility Wind Speed Wind Dir Waves Ship Positions

Manila Express

Last reported at 2015-Jan-30 11:33 UTC. Time now 2015-Jan-30 12:35 UTC.
Position N 41°30' E 004°35'.

Length 260 m; draft 10.1 m.

Type: Ship (hazmat cat A). MMSI: 477830800.

Date/timePositionNaut miles runAvg speedWind from/ knotsBaromVisibWave heightAir tempDewpointWater temp
2015-Jan-30 11:33N 41°30' E 004°35'2116.0
2015-Jan-30 10:13N 41°16' E 004°14'1213.5
2015-Jan-30 09:22N 41°09' E 004°01'1314.5
2015-Jan-30 08:28N 41°01' E 003°48'1213.7
2015-Jan-30 07:33N 40°53' E 003°35'1515.1
2015-Jan-30 06:33N 40°43' E 003°20'1615.5
2015-Jan-30 05:33N 40°33' E 003°05'1515.4
2015-Jan-30 04:33N 40°22' E 002°49'1615.8
2015-Jan-30 03:33N 40°12' E 002°34'1615.8
2015-Jan-30 02:33N 40°02' E 002°18'1615.9
2015-Jan-30 01:33N 39°51' E 002°03'1615.7
2015-Jan-30 00:33N 39°41' E 001°47'1616.1
2015-Jan-29 23:33N 39°30' E 001°31'1615.7
2015-Jan-29 22:33N 39°18' E 001°18'1815.4
2015-Jan-29 21:25N 39°03' E 001°07'1415.5
2015-Jan-29 20:30N 38°51' E 000°57'2015.6
2015-Jan-29 19:15N 38°35' E 000°44'1115.2
2015-Jan-29 18:33N 38°25' E 000°37'1515.2
2015-Jan-29 17:33N 38°12' E 000°27'1515.4
2015-Jan-29 16:33N 37°59' E 000°17'1615.8
2015-Jan-29 15:33N 37°46' E 000°07'1615.8
2015-Jan-29 14:33N 37°32' W 000°04'1515.7
2015-Jan-29 13:33N 37°19' W 000°13'1515.0
2015-Jan-29 12:33N 37°07' W 000°26'1615.8
2015-Jan-29 11:33N 36°60' W 000°43'1615.8
2015-Jan-29 10:33N 36°52' W 001°01'21215.2
2015-Jan-28 20:33N 35°60' W 005°17'12815.2
2015-Jan-28 12:09N 36°13' W 007°54'1015.4
2015-Jan-28 11:31N 36°16' W 008°05'11113.4
2015-Jan-28 03:14N 37°33' W 009°45'1115.4
2015-Jan-28 02:32N 37°44' W 009°47'1515.2
2015-Jan-28 01:32N 37°58' W 009°53'1515.1
2015-Jan-28 00:33N 38°13' W 009°57'1615.6
2015-Jan-27 23:33N 38°28' W 010°03'1616.1
2015-Jan-27 22:33N 38°43' W 010°07'1715.9
2015-Jan-27 21:31N 38°60' W 010°07'  
2015-Jan-25 16:28N 49°40' W 000°35'1618.1
2015-Jan-25 15:33N 49°33' W 000°12'1313.4
2015-Jan-25 14:33N 49°28' E 000°07'1 1.2
2015-Jan-25 13:34N 49°28' E 000°09'0 0.0
2015-Jan-25 12:33N 49°28' E 000°09'0 0.0
2015-Jan-25 11:33N 49°28' E 000°09'0 0.0
2015-Jan-25 10:33N 49°28' E 000°09'0 0.0
2015-Jan-25 09:30N 49°28' E 000°09'0 0.0
2015-Jan-25 08:33N 49°28' E 000°09'0 0.0
2015-Jan-25 07:33N 49°28' E 000°09'3 3.2
2015-Jan-25 06:33N 49°29' E 000°05'1111.1
2015-Jan-25 05:34N 49°32' W 000°12'1313.3
2015-Jan-25 04:33N 49°41' W 000°27'5717.9
2015-Jan-25 01:21N 50°31' E 000°17'1417.7
2015-Jan-25 00:33N 50°37' E 000°38'1817.6
2015-Jan-24 23:33N 50°49' E 000°58'2020.2
2015-Jan-24 22:34N 51°02' E 001°22'2019.7
2015-Jan-24 21:34N 51°15' E 001°46'2322.6
2015-Jan-24 20:33N 51°34' E 002°06'2221.1
2015-Jan-24 19:31N 51°50' E 002°29'1919.4
2015-Jan-24 18:32N 52°02' E 002°53'2019.5
2015-Jan-24 17:32N 52°04' E 003°25'1616.7
2015-Jan-24 16:34N 52°03' E 003°52'6 6.5
2015-Jan-24 15:33N 52°00' E 004°01'1010.1
2015-Jan-24 14:33N 51°55' E 004°15'6 6.2
2015-Jan-24 13:32N 51°53' E 004°24'0 0.0
2015-Jan-24 12:32N 51°53' E 004°24'0 0.0
2015-Jan-24 11:32N 51°53' E 004°24'0 0.0
2015-Jan-24 10:29N 51°53' E 004°24'0 0.0
2015-Jan-24 09:32N 51°53' E 004°24'0 0.0
2015-Jan-24 08:32N 51°53' E 004°24'0 0.0
2015-Jan-24 07:32N 51°53' E 004°24'0 0.0
2015-Jan-24 06:32N 51°53' E 004°24'0 0.0
2015-Jan-24 05:32N 51°53' E 004°24'0 0.0
2015-Jan-24 04:32N 51°53' E 004°24'0 0.0
2015-Jan-24 03:32N 51°53' E 004°24'0 0.0
2015-Jan-24 02:32N 51°53' E 004°24'0 0.0
2015-Jan-24 01:32N 51°53' E 004°24'0 0.0
2015-Jan-24 00:31N 51°53' E 004°24'0 0.0
2015-Jan-23 23:32N 51°53' E 004°24'0 0.0
2015-Jan-23 22:32N 51°53' E 004°24'0 0.0
2015-Jan-23 21:31N 51°53' E 004°24'0 0.0
2015-Jan-23 20:31N 51°53' E 004°24'0 0.0
2015-Jan-23 19:31N 51°53' E 004°24'0 0.0
2015-Jan-23 18:31N 51°53' E 004°24'0 0.0
2015-Jan-23 17:31N 51°53' E 004°24'0 0.0
2015-Jan-23 16:31N 51°53' E 004°24'0 0.0
2015-Jan-23 15:31N 51°53' E 004°24'1 1.5
2015-Jan-23 14:33N 51°54' E 004°23'8 7.8
2015-Jan-23 13:33N 51°57' E 004°11'1010.0
2015-Jan-23 12:33N 51°60' E 003°56'10 9.9
2015-Jan-23 11:33N 51°58' E 003°40'1818.4
2015-Jan-23 10:34N 51°52' E 003°11'1918.8
2015-Jan-23 09:33N 51°49' E 002°41'1918.6
2015-Jan-23 08:31N 51°52' E 002°10'1515.9
2015-Jan-23 07:33N 51°49' E 001°46'9 9.4
2015-Jan-23 06:33N 51°46' E 001°32'1717.4
2015-Jan-23 05:33N 51°34' E 001°12'1817.7
2015-Jan-23 04:33N 51°30' E 000°45'1312.6
2015-Jan-23 03:33N 51°27' E 000°25'3 3.0
2015-Jan-23 02:33N 51°28' E 000°20'0 0.0
2015-Jan-23 01:33N 51°28' E 000°20'0 0.0
2015-Jan-23 00:32N 51°28' E 000°20'0 0.0
2015-Jan-22 23:34N 51°28' E 000°20'0 0.0
2015-Jan-22 22:34N 51°28' E 000°20'0 0.0
2015-Jan-22 21:32N 51°28' E 000°20'0 0.0
2015-Jan-22 20:31N 51°28' E 000°20'0 0.0
2015-Jan-22 19:33N 51°28' E 000°20'0 0.0
2015-Jan-22 18:31N 51°28' E 000°20'0 0.0
2015-Jan-22 17:33N 51°28' E 000°20'0 0.0
2015-Jan-22 16:34N 51°28' E 000°20'0 0.0
2015-Jan-22 15:34N 51°28' E 000°20'0 0.0
2015-Jan-22 14:33N 51°28' E 000°20'0 0.0
2015-Jan-22 13:32N 51°28' E 000°20'0 0.0
2015-Jan-22 12:32N 51°28' E 000°20'0 0.1
2015-Jan-22 11:33N 51°28' E 000°20'7 6.7
2015-Jan-22 10:33N 51°30' E 000°30'1413.6
2015-Jan-22 09:33N 51°29' E 000°52'1514.6
2015-Jan-22 08:33N 51°34' E 001°14'1717.0
2015-Jan-22 07:34N 51°47' E 001°33'9 9.4
2015-Jan-22 06:33N 51°52' E 001°45'1110.7
2015-Jan-22 05:33N 51°52' E 002°03'13 1.8
2015-Jan-21 22:39N 52°00' E 002°18'1412.9
2015-Jan-21 21:33N 52°06' E 002°40'1615.3
2015-Jan-21 20:32N 52°15' E 003°01'7013.2
2015-Jan-21 15:17N 53°07' E 004°17'912.9
2015-Jan-21 14:33N 53°14' E 004°27'1312.7
2015-Jan-21 13:33N 53°26' E 004°35'8 8.4
2015-Jan-21 12:33N 53°31' E 004°46'1414.4
2015-Jan-21 11:34N 53°36' E 005°09'1413.9
2015-Jan-21 10:33N 53°40' E 005°31'1313.1
2015-Jan-21 09:33N 53°44' E 005°52'1212.1
2015-Jan-21 08:33N 53°48' E 006°11'1712.0
2015-Jan-21 07:07N 53°52' E 006°40'712.7
2015-Jan-21 06:33N 53°54' E 006°51'1413.6
2015-Jan-21 05:31N 53°58' E 007°15'1414.2
2015-Jan-21 04:33N 54°01' E 007°37'1514.6
2015-Jan-21 03:33N 54°01' E 008°02'1716.8
2015-Jan-21 02:33N 53°58' E 008°30'1615.5
2015-Jan-21 01:33N 53°50' E 008°53'1110.9
2015-Jan-21 00:33N 53°53' E 009°11'1211.6
2015-Jan-20 23:33N 53°45' E 009°25'1111.5
2015-Jan-20 22:33N 53°35' E 009°37'1110.8
2015-Jan-20 21:34N 53°32' E 009°54'1 0.5
2015-Jan-20 20:32N 53°32' E 009°55'0 0.0
2015-Jan-20 19:32N 53°32' E 009°55'0 0.0
2015-Jan-20 18:32N 53°32' E 009°55'0 0.0
2015-Jan-20 17:32N 53°32' E 009°55'0 0.0
2015-Jan-20 16:32N 53°32' E 009°55'0 0.0
2015-Jan-20 15:32N 53°32' E 009°55'0 0.0
2015-Jan-20 14:32N 53°32' E 009°55'0 0.0
2015-Jan-20 13:29N 53°32' E 009°55'0 0.0
2015-Jan-20 12:32N 53°32' E 009°55'  

Dump ship's entire track history